Wheeler Sack Army Air Field
KGTB : now visible

Airfield :











YOU CAN JOIN US ON...

 
LOGIN :

Register | Disclaimer

   EN    FR    IT 

 









Legend :    VFR   Marginal VFR   IFR   Intensive IFR   Very Intensive IFR
Visi :
Ceiling :
>= 8 km
>= 3000ft
5 to 8 km
1000 to 3000 ft
1500m to 5 km
500 to 1000 ft
800 to 1500m
200 to 500 ft
< 800m
< 200 ft
Symbols :   Thunderstorms  Fog  Heavy snow  Heavy precipitations  Wind > 20 kt






- Airport Elevation : 688 ft


KGTB - Wheeler Sack Army Air Field

CURRENT METAR :
  • 081856Z AUTO 29010KT 10SM OVC060 11/M01 A2960 RMK AO2 SLP026 T01141011

EXPIRED METARs :
  • 081756Z AUTO 29004KT 10SM BKN070 OVC085 12/M01 A2960 RMK AO2 SLP026 T01151013 10119 20061 50000
  • 081656Z AUTO 33005KT 10SM FEW070 OVC085 11/M01 A2960 RMK AO2 SLP026 T01141014

TAF TAF KGTB
Valid from the 08 at 17:00 until the 09 at 23:00 UTC


081700Z 0817/0923 28006KT 9999 OVC075 650752 QNH2958INS
BECMG 0900/0901 20006KT 9999 SCT015 BKN020 QNH2937INS
BECMG 0909/0910 19009KT 9000 -SHRA SCT015 BKN050 QNH2907INS
BECMG 0918/0919 27020G35KT 9999 NSW BKN010 BKN015 510002 QNH2916INS TX11/0819Z TN03/0917Z



MET'MAP, your aeronautical weather chart ! - Copyright ORBIFLY December 2007 - Disclaimer

ORBIFLY MET'MAP TEAM :

Programming & Development : Alexandra Zaïnal
Concept & original design : Baudouin d'Aumeries
Assistance for programming : Marc-Olivier Méhu
Technical & hardware support : Manuel Goepfert

Contact : metmap@orbifly.com




SOURCES & CREDITS :

   NOAA       Earth
Advisory